Time;durP1;ratioP1;P1;durP2;ratioP2;P2;SDS_P1;SDS_P2;PMS_P1;PMS_P2;Temp;Humidity;BMP_temperature;BMP_pressure;BME280_temperature;BME280_humidity;BME280_pressure;Samples;Min_cycle;Max_cycle;Signal;HPM_P1;HPM_P2
2022/09/24 00:01:21;;;;;;;4.57;4.20;;;14.60;70.20;14.80;96232.00;;;;5034904;28;20649;-83
2022/09/24 00:03:54;;;;;;;3.90;3.60;;;14.60;70.20;14.80;96236.00;;;;5034450;28;20282;-84
2022/09/24 00:06:23;;;;;;;3.90;3.60;;;14.60;70.10;14.80;96219.00;;;;5034231;28;20224;-82
2022/09/24 00:08:54;;;;;;;3.40;3.20;;;14.60;69.90;14.80;96223.00;;;;5032274;28;20296;-83
2022/09/24 00:11:24;;;;;;;4.17;3.47;;;14.60;69.80;14.80;96220.00;;;;5033383;28;20216;-83
2022/09/24 00:13:53;;;;;;;3.80;3.50;;;14.60;69.80;14.80;96217.00;;;;5033912;28;20224;-83
2022/09/24 00:16:24;;;;;;;3.70;3.40;;;14.60;69.80;14.80;96214.00;;;;5023478;28;20212;-83
2022/09/24 00:18:53;;;;;;;4.17;3.77;;;14.60;69.90;14.80;96217.00;;;;5033337;28;20212;-83
2022/09/24 00:21:24;;;;;;;4.30;3.90;;;14.60;70.00;14.80;96223.00;;;;5034074;28;20218;-83
2022/09/24 00:23:54;;;;;;;5.57;3.53;;;14.60;69.90;14.80;96222.00;;;;5033858;28;20572;-83
2022/09/24 00:29:08;;;;;;;4.00;3.60;;;14.60;69.80;14.70;96212.00;;;;5034539;28;20212;-84
2022/09/24 00:31:36;;;;;;;3.90;3.50;;;14.50;69.60;14.70;96213.00;;;;5026560;28;20252;-83
2022/09/24 00:34:04;;;;;;;3.60;3.30;;;14.50;69.60;14.60;96212.00;;;;5033922;28;20221;-83
2022/09/24 00:36:31;;;;;;;3.80;3.50;;;14.50;69.60;14.60;96208.00;;;;5033359;28;20293;-83
2022/09/24 00:39:00;;;;;;;3.40;3.20;;;14.50;69.50;14.60;96209.00;;;;5034064;28;20223;-83
2022/09/24 00:41:30;;;;;;;3.53;3.30;;;14.50;69.50;14.60;96204.00;;;;5024153;28;20304;-83
2022/09/24 00:43:58;;;;;;;3.73;3.43;;;14.50;69.60;14.60;96204.00;;;;5033354;28;20565;-83
2022/09/24 00:46:32;;;;;;;4.10;3.70;;;14.40;69.70;14.60;96209.00;;;;5032751;28;20284;-83
2022/09/24 00:49:11;;;;;;;3.57;3.30;;;14.40;69.70;14.60;96200.00;;;;5034128;28;20213;-83
2022/09/24 00:51:40;;;;;;;3.80;3.50;;;14.40;70.50;14.50;96200.00;;;;5031789;28;20217;-84
2022/09/24 00:54:12;;;;;;;3.73;3.43;;;14.40;69.80;14.60;96199.00;;;;5030562;28;20251;-83
2022/09/24 00:56:42;;;;;;;3.20;3.00;;;14.40;70.00;14.60;96199.00;;;;5031673;28;20197;-84
2022/09/24 00:59:16;;;;;;;3.57;3.37;;;14.40;70.00;14.60;96198.00;;;;5032992;28;20259;-84
2022/09/24 01:01:44;;;;;;;3.77;3.47;;;14.40;70.00;14.60;96197.00;;;;5030274;28;20474;-84
2022/09/24 01:04:16;;;;;;;4.47;3.50;;;14.40;70.00;14.50;96192.00;;;;5023727;28;20229;-84
2022/09/24 01:06:44;;;;;;;3.40;3.10;;;14.40;70.10;14.50;96189.00;;;;5032584;28;20220;-83
2022/09/24 01:09:11;;;;;;;4.50;4.10;;;14.40;70.10;14.50;96186.00;;;;5030073;28;20205;-84
2022/09/24 01:11:53;;;;;;;3.87;3.57;;;14.40;70.30;14.50;96177.00;;;;5028835;28;20209;-84
2022/09/24 01:14:41;;;;;;;3.67;3.37;;;14.40;70.40;14.60;96170.00;;;;5028724;28;20231;-84
2022/09/24 01:17:25;;;;;;;4.30;3.83;;;14.40;70.40;14.60;96171.00;;;;5031146;28;20813;-84
2022/09/24 01:20:30;;;;;;;4.03;3.63;;;14.40;70.40;14.60;96175.00;;;;5019404;28;20285;-83
2022/09/24 01:23:26;;;;;;;3.50;3.30;;;14.40;70.50;14.60;96176.00;;;;5021942;28;20220;-84
2022/09/24 01:26:18;;;;;;;3.17;2.97;;;14.40;70.30;14.50;96167.00;;;;5027726;28;20205;-84
2022/09/24 01:29:05;;;;;;;3.80;3.30;;;14.40;70.20;14.50;96167.00;;;;5012938;28;20307;-84
2022/09/24 01:31:40;;;;;;;3.47;3.27;;;14.40;70.30;14.50;96167.00;;;;5028547;28;20221;-84
2022/09/24 01:34:11;;;;;;;5.07;3.27;;;14.40;70.20;14.50;96174.00;;;;5026557;28;20298;-84
2022/09/24 01:36:41;;;;;;;3.60;3.40;;;14.40;70.20;14.50;96166.00;;;;5032150;28;20196;-83
2022/09/24 01:39:09;;;;;;;3.60;3.30;;;14.40;70.10;14.50;96159.00;;;;5031674;28;20205;-83
2022/09/24 01:41:38;;;;;;;3.90;3.60;;;14.30;70.10;14.50;96151.00;;;;5031151;28;20296;-83
2022/09/24 01:44:06;;;;;;;3.67;3.33;;;14.40;70.20;14.50;96145.00;;;;5030500;28;20635;-82
2022/09/24 01:46:38;;;;;;;3.40;3.10;;;14.30;70.20;14.40;96148.00;;;;5030764;28;20232;-82
2022/09/24 01:49:06;;;;;;;3.30;3.10;;;14.30;70.10;14.40;96151.00;;;;5032983;28;20203;-83
2022/09/24 01:51:43;;;;;;;2.90;2.70;;;14.30;70.10;14.40;96143.00;;;;5031689;28;20706;-82
2022/09/24 01:54:18;;;;;;;3.63;3.33;;;14.30;70.10;14.40;96147.00;;;;5032384;28;20300;-84
2022/09/24 01:56:52;;;;;;;3.90;3.60;;;14.30;70.10;14.40;96141.00;;;;5031895;28;20208;-82
2022/09/24 01:59:30;;;;;;;4.33;3.97;;;14.30;70.90;14.40;96134.00;;;;5032977;28;20235;-83
2022/09/24 02:02:05;;;;;;;4.83;4.33;;;14.20;70.30;14.40;96135.00;;;;5032125;28;20312;-83
2022/09/24 02:04:39;;;;;;;4.37;4.07;;;14.20;70.40;14.40;96123.00;;;;5031073;28;20208;-82
2022/09/24 02:07:12;;;;;;;4.63;4.20;;;14.30;70.50;14.40;96126.00;;;;5031285;28;20654;-84
2022/09/24 02:09:42;;;;;;;4.27;3.90;;;14.20;70.40;14.40;96122.00;;;;5028691;28;20201;-83
2022/09/24 02:12:15;;;;;;;4.03;3.80;;;14.20;70.40;14.40;96129.00;;;;5032449;28;20313;-83
2022/09/24 02:14:49;;;;;;;4.20;3.80;;;14.20;70.40;14.30;96125.00;;;;5031663;28;20205;-84
2022/09/24 02:17:19;;;;;;;4.33;3.93;;;14.20;70.40;14.30;96121.00;;;;5031801;28;20231;-84
2022/09/24 02:19:48;;;;;;;4.30;4.00;;;14.20;70.30;14.30;96123.00;;;;5024513;28;20225;-83
2022/09/24 02:22:18;;;;;;;3.93;3.63;;;14.20;70.10;14.30;96122.00;;;;5030676;28;20225;-84
2022/09/24 02:24:49;;;;;;;3.90;3.60;;;14.10;70.20;14.30;96115.00;;;;5031185;28;20213;-84
2022/09/24 02:27:17;;;;;;;4.03;3.73;;;14.10;70.20;14.20;96107.00;;;;5032275;28;20403;-83
2022/09/24 02:29:45;;;;;;;6.17;3.40;;;14.10;70.20;14.30;96111.00;;;;5031461;28;20225;-83
2022/09/24 02:32:19;;;;;;;3.53;3.33;;;14.10;70.30;14.30;96116.00;;;;5027221;28;20307;-84
2022/09/24 02:34:52;;;;;;;3.60;3.30;;;14.10;70.30;14.20;96117.00;;;;5031957;28;20216;-83
2022/09/24 02:37:24;;;;;;;5.23;3.97;;;14.10;70.10;14.20;96117.00;;;;5031880;28;20193;-83
2022/09/24 02:39:51;;;;;;;3.97;3.67;;;14.10;70.00;14.20;96108.00;;;;5031987;28;20224;-83
2022/09/24 02:42:21;;;;;;;3.63;3.03;;;14.10;69.90;14.20;96105.00;;;;5026303;28;20316;-83
2022/09/24 02:44:48;;;;;;;3.63;3.30;;;14.10;70.00;14.20;96102.00;;;;5031732;28;20209;-84
2022/09/24 02:47:15;;;;;;;4.67;3.77;;;14.00;70.00;14.10;96096.00;;;;5031226;28;20284;-83
2022/09/24 02:49:44;;;;;;;3.70;3.40;;;14.00;70.90;14.10;96093.00;;;;5032467;28;20221;-84
2022/09/24 02:52:11;;;;;;;3.60;3.30;;;14.00;70.30;14.10;96102.00;;;;5031408;28;20248;-83
2022/09/24 02:54:38;;;;;;;3.90;3.60;;;14.00;70.20;14.10;96100.00;;;;5031765;28;20217;-84
2022/09/24 02:57:05;;;;;;;5.77;3.70;;;14.00;70.20;14.10;96093.00;;;;5032048;28;20860;-84
2022/09/24 02:59:32;;;;;;;3.50;3.20;;;14.00;70.20;14.10;96086.00;;;;5031899;28;20205;-84
2022/09/24 03:01:59;;;;;;;3.57;3.27;;;14.00;70.20;14.10;96086.00;;;;5018342;28;20232;-83
2022/09/24 03:04:28;;;;;;;3.53;3.33;;;13.90;70.10;14.00;96083.00;;;;5020113;28;20224;-84
2022/09/24 03:06:56;;;;;;;3.57;3.27;;;13.90;70.20;14.10;96089.00;;;;5032200;28;20209;-83
2022/09/24 03:09:23;;;;;;;3.60;3.30;;;13.90;70.40;14.00;96086.00;;;;5015818;28;20198;-84
2022/09/24 03:11:51;;;;;;;4.00;3.60;;;13.90;70.30;14.00;96085.00;;;;5024930;28;20649;-84
2022/09/24 03:14:18;;;;;;;3.17;2.97;;;13.90;70.20;14.00;96078.00;;;;5032060;28;20227;-83
2022/09/24 03:16:45;;;;;;;3.57;3.33;;;13.90;70.20;14.00;96073.00;;;;5033510;28;20280;-83
2022/09/24 03:19:12;;;;;;;5.07;3.43;;;13.90;70.40;14.00;96083.00;;;;5035631;28;20690;-84
2022/09/24 03:21:39;;;;;;;3.67;3.37;;;13.90;70.50;14.00;96078.00;;;;5035168;28;20221;-84
2022/09/24 03:24:07;;;;;;;3.90;3.60;;;13.90;70.50;14.00;96076.00;;;;5035424;28;20204;-84
2022/09/24 03:26:35;;;;;;;3.53;3.30;;;13.90;70.50;14.00;96071.00;;;;5035219;28;20304;-83
2022/09/24 03:29:02;;;;;;;4.13;3.80;;;13.80;71.20;14.00;96080.00;;;;5035152;28;20596;-83
2022/09/24 03:31:28;;;;;;;3.63;3.33;;;13.90;70.60;14.00;96083.00;;;;5035305;28;20330;-83
2022/09/24 03:33:56;;;;;;;3.87;3.50;;;13.90;70.70;14.00;96090.00;;;;5034431;28;20193;-84
2022/09/24 03:36:25;;;;;;;3.27;3.07;;;13.80;70.70;14.00;96090.00;;;;5035058;28;20287;-82
2022/09/24 03:38:55;;;;;;;3.93;3.40;;;13.90;70.90;14.00;96088.00;;;;5015012;28;20743;-83
2022/09/24 03:41:26;;;;;;;3.73;3.43;;;13.90;71.00;14.00;96083.00;;;;5034200;28;20221;-82
2022/09/24 03:43:53;;;;;;;3.30;3.03;;;13.90;71.10;14.00;96088.00;;;;5035127;28;20641;-83
2022/09/24 03:46:23;;;;;;;3.43;3.17;;;13.80;71.00;14.00;96095.00;;;;5030375;28;20540;-84
2022/09/24 03:48:50;;;;;;;3.67;3.37;;;13.90;71.10;14.00;96095.00;;;;5026748;28;20272;-83
2022/09/24 03:51:18;;;;;;;3.33;3.03;;;13.80;71.10;14.00;96089.00;;;;5033943;28;21014;-84
2022/09/24 03:53:47;;;;;;;3.23;3.03;;;13.90;71.30;14.00;96082.00;;;;5034794;28;20283;-84
2022/09/24 03:56:14;;;;;;;4.30;3.77;;;13.90;71.40;14.00;96080.00;;;;5033930;28;20627;-83
2022/09/24 03:58:46;;;;;;;5.63;4.13;;;13.90;71.50;14.10;96075.00;;;;5034309;28;20204;-83
2022/09/24 04:01:14;;;;;;;4.40;3.50;;;13.90;71.60;14.10;96078.00;;;;5033120;28;20615;-83
2022/09/24 04:03:41;;;;;;;4.50;4.10;;;13.90;71.70;14.10;96081.00;;;;5034307;28;20206;-83
2022/09/24 04:06:09;;;;;;;3.97;3.70;;;13.90;71.70;14.20;96074.00;;;;5029023;28;20237;-84
2022/09/24 04:08:36;;;;;;;4.30;3.90;;;13.90;71.70;14.20;96075.00;;;;5033626;28;20285;-84
2022/09/24 04:11:03;;;;;;;3.97;3.67;;;14.00;71.80;14.20;96073.00;;;;5033108;28;20232;-83
2022/09/24 04:13:31;;;;;;;3.77;3.47;;;14.00;71.70;14.20;96069.00;;;;5033341;28;20570;-82
2022/09/24 04:16:04;;;;;;;3.47;3.17;;;14.00;71.80;14.20;96063.00;;;;5033951;28;20317;-83
2022/09/24 04:18:31;;;;;;;3.37;3.17;;;14.00;72.00;14.30;96057.00;;;;5033796;28;20656;-83
2022/09/24 04:21:00;;;;;;;3.50;3.30;;;14.00;71.80;14.30;96064.00;;;;5033967;28;20201;-83
2022/09/24 04:23:30;;;;;;;4.20;3.90;;;14.10;71.90;14.30;96060.00;;;;5030842;28;20194;-83
2022/09/24 04:25:58;;;;;;;4.10;3.73;;;14.10;71.90;14.30;96055.00;;;;5033725;28;20285;-82
2022/09/24 04:28:25;;;;;;;4.03;3.63;;;14.10;71.90;14.30;96052.00;;;;5032481;28;20267;-82
2022/09/24 04:30:52;;;;;;;3.97;3.67;;;14.10;71.90;14.30;96049.00;;;;5034003;28;20232;-83
2022/09/24 04:33:21;;;;;;;4.37;3.97;;;14.10;71.90;14.40;96050.00;;;;5033767;28;20650;-83
2022/09/24 04:35:48;;;;;;;4.00;3.70;;;14.10;72.00;14.40;96046.00;;;;5033520;28;20224;-83
2022/09/24 04:38:15;;;;;;;3.73;3.43;;;14.10;71.90;14.40;96047.00;;;;5033797;28;20229;-84
2022/09/24 04:40:44;;;;;;;4.40;3.70;;;14.20;71.90;14.40;96048.00;;;;5033083;28;20739;-84
2022/09/24 04:43:11;;;;;;;3.67;3.37;;;14.20;71.90;14.40;96050.00;;;;5033306;28;20264;-83
2022/09/24 04:45:38;;;;;;;3.90;3.50;;;14.20;71.80;14.40;96047.00;;;;5024343;28;20308;-82
2022/09/24 04:48:05;;;;;;;3.40;3.10;;;14.20;72.50;14.40;96046.00;;;;5028453;28;20229;-82
2022/09/24 04:50:34;;;;;;;4.27;3.90;;;14.20;71.80;14.40;96047.00;;;;5033702;28;20661;-82
2022/09/24 04:53:02;;;;;;;3.73;3.10;;;14.20;71.80;14.40;96049.00;;;;5033236;28;20619;-83
2022/09/24 04:55:30;;;;;;;3.93;3.63;;;14.20;71.70;14.40;96046.00;;;;5013452;28;20232;-84
2022/09/24 04:57:59;;;;;;;3.23;3.00;;;14.20;71.70;14.40;96053.00;;;;5021862;28;20213;-83
2022/09/24 05:00:26;;;;;;;3.20;2.90;;;14.20;71.70;14.40;96050.00;;;;5033072;28;20201;-83
2022/09/24 05:02:58;;;;;;;3.50;3.30;;;14.20;71.60;14.40;96049.00;;;;5032865;28;20742;-83
2022/09/24 05:05:26;;;;;;;3.20;3.00;;;14.20;71.70;14.40;96050.00;;;;5033373;28;20216;-83
2022/09/24 05:07:55;;;;;;;4.00;3.10;;;14.20;71.60;14.40;96061.00;;;;5033378;28;20233;-83
2022/09/24 05:10:23;;;;;;;3.47;3.20;;;14.20;71.60;14.40;96061.00;;;;5033248;28;20267;-82
2022/09/24 05:12:51;;;;;;;4.13;3.47;;;14.20;71.70;14.30;96056.00;;;;5033312;28;20213;-83
2022/09/24 05:15:19;;;;;;;3.70;3.40;;;14.20;71.60;14.40;96050.00;;;;5032699;28;20320;-83
2022/09/24 05:17:46;;;;;;;3.80;3.50;;;14.20;71.70;14.30;96048.00;;;;5024119;28;20201;-83
2022/09/24 05:20:15;;;;;;;3.37;2.97;;;14.20;71.70;14.30;96043.00;;;;5044318;28;20193;-83
2022/09/24 05:22:43;;;;;;;4.00;3.27;;;14.20;71.70;14.30;96037.00;;;;5035504;28;20220;-83
2022/09/24 05:25:13;;;;;;;3.27;3.07;;;14.20;71.70;14.30;96037.00;;;;5031327;28;20292;-82
2022/09/24 05:27:44;;;;;;;3.90;3.43;;;14.20;71.70;14.30;96034.00;;;;5033799;28;20233;-82
2022/09/24 05:30:12;;;;;;;3.57;3.27;;;14.20;71.80;14.30;96037.00;;;;5033543;28;20197;-82
2022/09/24 05:32:40;;;;;;;3.67;3.40;;;14.20;71.80;14.30;96048.00;;;;5033396;28;20279;-83
2022/09/24 05:35:08;;;;;;;4.00;2.90;;;14.10;72.30;14.30;96047.00;;;;5032888;28;20231;-83
2022/09/24 05:37:36;;;;;;;3.70;3.40;;;14.20;72.00;14.30;96047.00;;;;5032683;28;20201;-83
2022/09/24 05:42:47;;;;;;;3.73;3.43;;;14.20;72.00;14.40;96061.00;;;;5031348;28;20260;-82
2022/09/24 05:45:16;;;;;;;3.30;3.00;;;14.20;72.10;14.40;96056.00;;;;5031702;28;20197;-82
2022/09/24 05:47:44;;;;;;;4.03;3.73;;;14.20;72.20;14.40;96060.00;;;;5032461;28;20212;-82
2022/09/24 05:50:12;;;;;;;3.70;3.40;;;14.20;72.20;14.40;96055.00;;;;5032620;28;20244;-83
2022/09/24 05:52:39;;;;;;;3.73;3.43;;;14.20;72.20;14.40;96057.00;;;;5032288;28;20245;-83
2022/09/24 05:55:09;;;;;;;3.80;3.50;;;14.20;72.20;14.40;96054.00;;;;5032630;28;20225;-83
2022/09/24 05:57:36;;;;;;;3.43;3.23;;;14.20;72.30;14.50;96056.00;;;;5032439;28;20201;-82
2022/09/24 06:00:07;;;;;;;3.70;3.50;;;14.20;72.30;14.50;96061.00;;;;5032421;28;20289;-83
2022/09/24 06:02:35;;;;;;;4.20;3.80;;;14.20;72.40;14.50;96066.00;;;;5031779;28;20299;-83
2022/09/24 06:05:02;;;;;;;4.10;3.70;;;14.30;72.50;14.50;96052.00;;;;5031902;28;20197;-82
2022/09/24 06:07:29;;;;;;;4.53;3.70;;;14.30;72.60;14.50;96054.00;;;;5032113;28;20207;-83
2022/09/24 06:09:58;;;;;;;4.00;3.70;;;14.30;72.60;14.60;96044.00;;;;5019501;28;20202;-82
2022/09/24 06:12:25;;;;;;;3.67;3.37;;;14.30;72.60;14.60;96055.00;;;;5032249;28;20244;-87
2022/09/24 06:14:53;;;;;;;4.20;3.80;;;14.40;72.80;14.70;96048.00;;;;5032197;28;20578;-86
2022/09/24 06:17:22;;;;;;;4.00;3.60;;;14.40;72.80;14.80;96052.00;;;;5026222;28;20208;-86
2022/09/24 06:19:49;;;;;;;3.77;3.47;;;14.40;72.90;14.90;96061.00;;;;5032760;28;20209;-85
2022/09/24 06:22:16;;;;;;;4.03;3.67;;;14.50;72.90;14.90;96066.00;;;;5028057;28;20586;-85
2022/09/24 06:24:44;;;;;;;4.30;3.90;;;14.50;72.90;15.00;96053.00;;;;5030789;28;20637;-85
2022/09/24 06:27:11;;;;;;;5.20;3.80;;;14.60;73.10;15.10;96051.00;;;;5032173;28;20259;-85
2022/09/24 06:29:39;;;;;;;4.00;3.50;;;14.70;73.20;15.20;96053.00;;;;5031549;28;20284;-87
2022/09/24 06:32:07;;;;;;;4.10;3.80;;;14.70;73.10;15.30;96058.00;;;;5028983;28;20308;-85
2022/09/24 06:34:35;;;;;;;3.27;3.00;;;14.80;73.20;15.40;96062.00;;;;5031423;28;20201;-85
2022/09/24 06:37:02;;;;;;;4.07;3.30;;;14.90;73.20;15.40;96063.00;;;;5032208;28;20217;-86
2022/09/24 06:39:29;;;;;;;3.10;2.90;;;14.90;73.10;15.50;96065.00;;;;5031116;28;20739;-86
2022/09/24 06:41:57;;;;;;;3.60;3.37;;;14.90;73.10;15.50;96066.00;;;;5031283;28;20299;-85
2022/09/24 06:44:24;;;;;;;3.43;3.13;;;15.00;73.10;15.60;96064.00;;;;5028986;28;20251;-86
2022/09/24 06:46:51;;;;;;;3.40;3.03;;;15.10;73.10;15.60;96064.00;;;;5031689;28;20643;-86
2022/09/24 06:49:19;;;;;;;3.60;3.40;;;15.10;73.10;15.70;96064.00;;;;5032088;28;20232;-85
2022/09/24 06:51:47;;;;;;;4.50;3.20;;;15.20;73.00;15.80;96068.00;;;;5033651;28;20237;-85
2022/09/24 06:54:14;;;;;;;3.33;3.13;;;15.30;73.10;15.80;96066.00;;;;5035952;28;20231;-86
2022/09/24 06:56:41;;;;;;;3.30;3.10;;;15.30;73.00;15.90;96072.00;;;;5036040;28;20228;-85
2022/09/24 06:59:09;;;;;;;3.40;3.10;;;15.40;72.90;15.90;96080.00;;;;5033570;28;20572;-85
2022/09/24 07:01:36;;;;;;;3.60;3.30;;;15.40;72.80;16.00;96078.00;;;;5035563;28;20228;-85
2022/09/24 07:04:03;;;;;;;3.53;3.23;;;15.50;72.80;16.10;96077.00;;;;5035412;28;20211;-85
2022/09/24 07:07:28;;;;;;;3.90;3.60;;;15.50;72.70;16.10;96087.00;;;;5035920;28;20247;-85
2022/09/24 07:09:19;;;;;;;3.90;3.60;;;15.60;72.70;16.20;96085.00;;;;5035334;28;20196;-86
2022/09/24 07:11:46;;;;;;;3.73;3.43;;;15.70;72.70;16.30;96071.00;;;;5035260;28;20256;-85
2022/09/24 07:14:14;;;;;;;4.10;3.80;;;15.70;72.60;16.30;96083.00;;;;5035989;28;20296;-85
2022/09/24 07:16:41;;;;;;;4.17;3.87;;;15.80;72.60;16.40;96076.00;;;;5034637;28;20267;-85
2022/09/24 07:19:08;;;;;;;4.27;3.97;;;15.80;72.50;16.50;96077.00;;;;5015863;28;20221;-86
2022/09/24 07:21:36;;;;;;;4.53;4.13;;;15.90;72.50;16.50;96073.00;;;;5032381;28;20217;-86
2022/09/24 07:24:04;;;;;;;4.03;3.70;;;16.00;72.50;16.60;96086.00;;;;5035034;28;20208;-86
2022/09/24 07:26:32;;;;;;;5.83;4.87;;;16.00;72.30;16.60;96087.00;;;;5034905;28;20224;-85
2022/09/24 07:29:00;;;;;;;5.17;4.67;;;16.10;72.30;16.60;96087.00;;;;5035459;28;20636;-85
2022/09/24 07:31:27;;;;;;;5.80;4.33;;;16.10;72.20;16.70;96086.00;;;;5035214;28;20225;-85
2022/09/24 07:33:55;;;;;;;4.40;4.10;;;16.10;72.20;16.70;96093.00;;;;5034771;28;20292;-85
2022/09/24 07:36:22;;;;;;;3.97;3.77;;;16.20;72.20;16.70;96093.00;;;;5034791;28;20697;-85
2022/09/24 07:38:49;;;;;;;3.37;3.17;;;16.20;72.10;16.70;96098.00;;;;5035219;28;20251;-86
2022/09/24 07:41:17;;;;;;;3.77;3.50;;;16.20;71.90;16.70;96097.00;;;;5059014;22;20230;-87
2022/09/24 07:43:46;;;;;;;3.57;3.27;;;16.30;72.00;16.70;96098.00;;;;5093815;22;20727;-85
2022/09/24 07:46:13;;;;;;;3.70;3.40;;;16.30;72.10;16.70;96098.00;;;;5093241;28;20246;-85
2022/09/24 07:48:40;;;;;;;3.93;3.63;;;16.30;72.30;16.80;96099.00;;;;5094247;28;20191;-86
2022/09/24 07:51:10;;;;;;;4.07;3.67;;;16.30;72.50;16.70;96098.00;;;;5090188;28;20590;-86
2022/09/24 07:53:37;;;;;;;3.87;3.50;;;16.30;72.80;16.80;96108.00;;;;5074303;28;20284;-87
2022/09/24 07:56:04;;;;;;;4.07;3.63;;;16.30;72.90;16.80;96103.00;;;;5069411;28;20569;-86
2022/09/24 07:58:31;;;;;;;4.13;3.83;;;16.40;72.90;16.80;96105.00;;;;5071721;28;20211;-86
2022/09/24 08:01:01;;;;;;;3.97;3.67;;;16.40;73.00;16.80;96107.00;;;;5080740;28;20306;-87
2022/09/24 08:03:28;;;;;;;4.30;4.00;;;16.40;73.20;16.80;96105.00;;;;5076735;28;20203;-86
2022/09/24 08:05:57;;;;;;;4.27;3.87;;;16.40;74.10;16.80;96111.00;;;;5062929;28;20205;-86
2022/09/24 08:08:25;;;;;;;5.80;3.90;;;16.40;73.50;16.90;96104.00;;;;5058974;28;20708;-87
2022/09/24 08:10:52;;;;;;;4.40;4.10;;;16.50;73.70;16.90;96115.00;;;;5073576;28;20226;-86
2022/09/24 08:13:19;;;;;;;4.03;3.73;;;16.50;73.60;17.00;96112.00;;;;5072823;28;20645;-86
2022/09/24 08:15:46;;;;;;;4.40;4.00;;;16.50;73.50;17.00;96114.00;;;;5064128;28;20624;-87
2022/09/24 08:18:15;;;;;;;4.80;4.40;;;16.50;73.50;17.10;96101.00;;;;5073237;28;20200;-86
2022/09/24 08:20:42;;;;;;;4.43;3.93;;;16.60;73.80;17.10;96109.00;;;;5060986;28;20205;-86
2022/09/24 08:23:10;;;;;;;4.23;3.93;;;16.60;73.90;17.20;96111.00;;;;5075404;28;20207;-84
2022/09/24 08:25:37;;;;;;;4.57;4.17;;;16.70;74.20;17.30;96113.00;;;;5092635;28;20195;-84
2022/09/24 08:28:06;;;;;;;6.77;6.17;;;16.70;74.10;17.30;96112.00;;;;5072568;28;20196;-84
2022/09/24 08:30:35;;;;;;;7.10;6.40;;;16.70;74.10;17.40;96120.00;;;;5072602;28;20286;-84
2022/09/24 08:33:05;;;;;;;5.77;5.27;;;16.80;74.20;17.40;96122.00;;;;5073258;28;20277;-84
2022/09/24 08:35:34;;;;;;;5.90;5.40;;;16.80;74.30;17.50;96131.00;;;;5072485;28;20200;-86
2022/09/24 08:38:02;;;;;;;5.80;5.30;;;16.90;74.30;17.50;96139.00;;;;5069231;28;20209;-84
2022/09/24 08:40:34;;;;;;;5.17;4.77;;;16.90;74.30;17.50;96136.00;;;;5069784;28;20257;-85
2022/09/24 08:43:20;;;;;;;4.80;4.40;;;17.00;74.40;17.60;96131.00;;;;5076912;28;20287;-87
2022/09/24 08:48:48;;;;;;;4.93;4.50;;;17.10;74.50;17.60;96130.00;;;;5070893;28;20326;-85
2022/09/24 08:51:20;;;;;;;4.30;3.97;;;17.10;74.40;17.70;96136.00;;;;5081358;28;20653;-85
2022/09/24 08:53:54;;;;;;;4.50;4.20;;;17.20;75.30;17.80;96129.00;;;;5072784;28;20283;-84
2022/09/24 08:56:29;;;;;;;5.97;4.47;;;17.20;74.70;17.80;96132.00;;;;5070038;28;20224;-84
2022/09/24 08:59:00;;;;;;;4.57;4.17;;;17.30;74.60;17.90;96134.00;;;;5073170;28;20203;-85
2022/09/24 09:01:38;;;;;;;5.03;4.60;;;17.30;74.40;17.90;96138.00;;;;5073631;28;20295;-86
2022/09/24 09:04:21;;;;;;;6.30;4.60;;;17.30;74.50;18.00;96139.00;;;;5074486;28;20194;-88
2022/09/24 09:07:18;;;;;;;5.80;4.60;;;17.40;74.50;18.00;96133.00;;;;5070088;28;20286;-83
2022/09/24 09:09:53;;;;;;;4.87;4.47;;;17.50;74.70;18.10;96129.00;;;;5077137;28;20629;-86
2022/09/24 09:12:30;;;;;;;5.67;5.17;;;17.50;75.00;18.20;96144.00;;;;5068689;28;20299;-84
2022/09/24 09:15:05;;;;;;;5.33;4.83;;;17.60;74.40;18.20;96146.00;;;;5075444;28;20298;-84
2022/09/24 09:17:44;;;;;;;4.63;4.23;;;17.70;74.60;18.30;96153.00;;;;5070952;28;20220;-84
2022/09/24 09:20:20;;;;;;;4.37;4.07;;;17.70;74.50;18.40;96151.00;;;;5074559;28;20292;-84
2022/09/24 09:22:53;;;;;;;6.60;4.30;;;17.80;74.40;18.40;96150.00;;;;5069028;28;20285;-84
2022/09/24 09:25:24;;;;;;;4.40;4.10;;;17.80;74.60;18.50;96149.00;;;;5064987;28;20192;-85
2022/09/24 09:27:59;;;;;;;4.27;3.97;;;17.90;74.70;18.60;96147.00;;;;5076609;28;20278;-84
2022/09/24 09:30:33;;;;;;;4.37;4.03;;;17.90;74.70;18.70;96160.00;;;;5069138;28;20274;-86
2022/09/24 09:33:21;;;;;;;4.73;3.90;;;18.00;74.70;18.70;96152.00;;;;5084393;28;20260;-86
2022/09/24 09:36:00;;;;;;;4.07;3.77;;;18.10;74.90;18.80;96155.00;;;;5073663;28;20218;-86
2022/09/24 09:38:46;;;;;;;4.00;3.63;;;18.10;74.80;18.90;96153.00;;;;5071343;28;20747;-85
2022/09/24 09:41:27;;;;;;;4.03;3.73;;;18.20;74.70;19.00;96153.00;;;;5063661;28;20212;-84
2022/09/24 09:44:00;;;;;;;4.53;4.13;;;18.30;75.20;19.00;96152.00;;;;5072508;28;20334;-85
2022/09/24 09:46:34;;;;;;;3.53;3.23;;;18.40;74.30;19.00;96155.00;;;;5073645;28;20278;-85
2022/09/24 09:49:07;;;;;;;3.53;3.30;;;18.40;74.30;19.10;96154.00;;;;5080573;28;20200;-84
2022/09/24 09:51:40;;;;;;;4.17;3.77;;;18.50;74.30;19.10;96154.00;;;;5074815;28;20216;-84
2022/09/24 09:54:11;;;;;;;4.60;4.20;;;18.50;74.20;19.20;96161.00;;;;5080512;28;20593;-86
2022/09/24 09:56:45;;;;;;;3.90;3.60;;;18.60;74.20;19.20;96159.00;;;;5076930;28;20283;-85
2022/09/24 09:59:20;;;;;;;3.93;3.63;;;18.60;74.10;19.30;96163.00;;;;5076781;28;20282;-85
2022/09/24 10:01:54;;;;;;;3.43;3.23;;;18.70;73.80;19.30;96156.00;;;;5076667;28;20212;-85
2022/09/24 10:04:39;;;;;;;3.47;3.17;;;18.70;73.80;19.40;96152.00;;;;5063940;28;20215;-86
2022/09/24 10:07:10;;;;;;;4.17;3.40;;;18.80;73.90;19.40;96157.00;;;;5062735;28;20203;-85
2022/09/24 10:09:40;;;;;;;3.53;3.23;;;18.80;73.80;19.40;96152.00;;;;5074289;28;20245;-86
2022/09/24 10:12:20;;;;;;;3.40;3.10;;;18.80;73.90;19.50;96162.00;;;;5077638;28;20224;-88
2022/09/24 10:14:59;;;;;;;5.57;3.87;;;18.90;74.00;19.60;96158.00;;;;5085218;28;20215;-85
2022/09/24 10:17:35;;;;;;;4.80;4.23;;;18.90;74.00;19.60;96166.00;;;;5070482;28;20210;-85
2022/09/24 10:20:09;;;;;;;4.83;4.33;;;19.00;73.80;19.70;96161.00;;;;5068448;28;20199;-85
2022/09/24 10:22:49;;;;;;;5.10;4.50;;;19.00;73.90;19.70;96162.00;;;;5074046;28;20246;-85
2022/09/24 10:25:25;;;;;;;4.23;3.83;;;19.10;74.00;19.70;96171.00;;;;5067422;28;20195;-84
2022/09/24 10:30:32;;;;;;;3.77;3.53;;;19.10;74.00;19.80;96167.00;;;;5069865;28;20545;-85
2022/09/24 10:30:52;;;;;;;3.67;3.37;;;19.10;74.00;19.80;96161.00;;;;5063280;28;20194;-84
2022/09/24 10:33:19;;;;;;;3.33;3.03;;;19.20;74.30;19.80;96163.00;;;;5068194;28;20199;-85
2022/09/24 10:35:46;;;;;;;4.00;3.60;;;19.20;74.00;19.90;96164.00;;;;5071933;28;20294;-85
2022/09/24 10:38:19;;;;;;;4.17;3.77;;;19.20;73.80;19.90;96168.00;;;;5072406;28;20231;-85
2022/09/24 10:40:48;;;;;;;4.47;3.90;;;19.30;74.10;19.90;96173.00;;;;5070248;28;20331;-85
2022/09/24 10:43:21;;;;;;;4.10;3.80;;;19.30;74.10;20.00;96166.00;;;;5064430;28;20583;-87
2022/09/24 10:46:20;;;;;;;3.87;3.57;;;19.40;74.20;20.00;96169.00;;;;5068053;28;20200;-85
2022/09/24 10:48:58;;;;;;;3.90;3.67;;;19.40;74.80;20.10;96158.00;;;;5071038;28;20202;-86
2022/09/24 10:51:38;;;;;;;3.80;3.40;;;19.40;74.60;20.10;96163.00;;;;5073423;28;20684;-84
2022/09/24 10:54:33;;;;;;;3.43;3.20;;;19.50;74.70;20.20;96162.00;;;;5082320;28;20232;-86
2022/09/24 10:57:18;;;;;;;2.60;2.40;;;19.50;74.70;20.20;96166.00;;;;5077869;28;20247;-85
2022/09/24 11:00:01;;;;;;;3.40;3.00;;;19.60;74.60;20.20;96159.00;;;;5078186;28;20665;-86
2022/09/24 11:03:08;;;;;;;3.10;2.87;;;19.60;73.90;20.20;96163.00;;;;5075809;28;20607;-86
2022/09/24 11:05:42;;;;;;;3.23;3.00;;;19.60;74.50;20.20;96166.00;;;;5067654;28;20278;-88
2022/09/24 11:08:27;;;;;;;3.27;3.07;;;19.60;74.20;20.20;96165.00;;;;5075957;28;20231;-85
2022/09/24 11:11:19;;;;;;;3.83;3.53;;;19.70;74.40;20.30;96171.00;;;;5069043;28;20243;-84
2022/09/24 11:14:02;;;;;;;3.87;3.13;;;19.70;74.50;20.30;96162.00;;;;5063685;28;20227;-84
2022/09/24 11:16:55;;;;;;;4.23;3.93;;;19.70;74.70;20.30;96164.00;;;;5067227;28;20279;-85
2022/09/24 11:19:54;;;;;;;3.33;3.13;;;19.70;75.50;20.30;96161.00;;;;5068628;28;20283;-83
2022/09/24 11:22:34;;;;;;;4.40;3.50;;;19.70;74.60;20.30;96166.00;;;;5066887;28;20278;-85